Time;durP1;ratioP1;P1;durP2;ratioP2;P2;SDS_P1;SDS_P2;PMS_P1;PMS_P2;Temp;Humidity;BMP_temperature;BMP_pressure;BME280_temperature;BME280_humidity;BME280_pressure;Samples;Min_cycle;Max_cycle;Signal;HPM_P1;HPM_P2
2021/11/22 05:01:21;;;;;;;1.85;1.85;;;2.90;99.90;;;;;;5591089;23;20748;-71
2021/11/22 05:03:50;;;;;;;2.38;2.28;;;2.80;99.90;;;;;;5007151;28;20199;-71
2021/11/22 05:06:17;;;;;;;2.53;2.53;;;2.80;99.90;;;;;;5002476;28;20228;-71
2021/11/22 05:08:44;;;;;;;2.05;1.95;;;2.80;99.90;;;;;;4993694;28;20700;-71
2021/11/22 05:11:10;;;;;;;2.30;2.20;;;2.80;99.90;;;;;;4994154;28;20254;-71
2021/11/22 05:13:38;;;;;;;2.15;2.15;;;2.80;99.90;;;;;;4996875;28;20675;-71
2021/11/22 05:16:05;;;;;;;2.35;2.25;;;2.80;99.90;;;;;;4992576;28;20235;-71
2021/11/22 05:18:33;;;;;;;1.90;1.80;;;2.70;99.90;;;;;;5008064;28;20227;-72
2021/11/22 05:21:00;;;;;;;1.88;1.88;;;2.70;99.90;;;;;;5012690;28;20603;-71
2021/11/22 05:23:26;;;;;;;2.40;2.30;;;2.70;99.90;;;;;;4998767;28;20208;-71
2021/11/22 05:25:53;;;;;;;2.75;2.60;;;2.70;99.90;;;;;;4993929;28;20207;-70
2021/11/22 05:28:21;;;;;;;2.67;2.58;;;2.70;99.90;;;;;;5004329;28;20204;-71
2021/11/22 05:30:48;;;;;;;2.30;2.20;;;2.60;99.90;;;;;;5003081;28;20294;-71
2021/11/22 05:33:15;;;;;;;1.92;1.92;;;2.60;99.90;;;;;;5004282;28;20218;-70
2021/11/22 05:35:43;;;;;;;2.75;2.60;;;2.60;99.90;;;;;;5008833;28;20195;-71
2021/11/22 05:38:10;;;;;;;3.55;3.22;;;2.60;99.90;;;;;;5013345;28;20219;-70
2021/11/22 05:40:37;;;;;;;4.10;3.85;;;2.60;99.90;;;;;;5001284;28;20222;-71
2021/11/22 05:43:04;;;;;;;3.88;3.67;;;2.60;99.90;;;;;;4997586;28;20210;-71
2021/11/22 05:45:30;;;;;;;3.50;3.30;;;2.60;99.90;;;;;;5000561;28;20207;-70
2021/11/22 05:47:57;;;;;;;3.13;3.00;;;2.60;99.90;;;;;;5012258;28;20203;-71
2021/11/22 05:50:24;;;;;;;2.70;2.50;;;2.70;99.90;;;;;;5000491;28;20211;-70
2021/11/22 05:52:54;;;;;;;2.60;2.40;;;2.70;99.90;;;;;;5012588;28;20214;-70
2021/11/22 05:55:38;;;;;;;2.17;2.10;;;2.60;99.90;;;;;;4996181;28;20680;-70
2021/11/22 05:58:07;;;;;;;3.10;2.90;;;2.60;99.90;;;;;;5007724;28;20226;-70
2021/11/22 06:00:35;;;;;;;2.70;2.70;;;2.60;99.90;;;;;;5009620;28;20290;-71
2021/11/22 06:03:02;;;;;;;2.28;2.17;;;2.60;99.90;;;;;;4994254;28;20219;-71
2021/11/22 06:05:28;;;;;;;3.42;3.13;;;2.70;99.90;;;;;;5003017;28;20262;-71
2021/11/22 06:07:56;;;;;;;2.78;2.70;;;2.70;99.90;;;;;;5010827;28;20218;-71
2021/11/22 06:10:23;;;;;;;3.38;3.17;;;2.70;99.90;;;;;;5012319;28;20210;-71
2021/11/22 06:12:50;;;;;;;3.40;3.20;;;2.80;99.90;;;;;;5000137;28;20211;-71
2021/11/22 06:15:17;;;;;;;4.20;3.45;;;2.80;99.90;;;;;;5001156;28;20313;-71
2021/11/22 06:17:43;;;;;;;4.20;3.90;;;2.80;99.90;;;;;;4993792;28;20374;-71
2021/11/22 06:20:11;;;;;;;4.32;3.83;;;2.80;99.90;;;;;;4997887;28;20196;-71
2021/11/22 06:22:38;;;;;;;5.38;4.05;;;2.70;99.90;;;;;;5000325;28;20218;-71
2021/11/22 06:25:07;;;;;;;4.82;4.53;;;2.70;99.90;;;;;;5000360;28;20208;-71
2021/11/22 06:27:34;;;;;;;5.78;5.22;;;2.70;99.90;;;;;;4997615;28;20227;-71
2021/11/22 06:30:00;;;;;;;5.80;5.30;;;2.70;99.90;;;;;;5001014;28;20666;-71
2021/11/22 06:32:30;;;;;;;4.78;4.47;;;2.70;99.90;;;;;;4996167;28;20227;-70
2021/11/22 06:34:57;;;;;;;5.32;4.68;;;2.70;99.90;;;;;;5008260;28;20203;-70
2021/11/22 06:37:26;;;;;;;5.63;5.07;;;2.70;99.90;;;;;;5006905;28;20208;-71
2021/11/22 06:39:54;;;;;;;7.88;7.10;;;2.70;99.90;;;;;;5000090;28;20203;-71
2021/11/22 06:42:22;;;;;;;11.02;9.07;;;2.70;99.90;;;;;;5008412;28;20215;-72
2021/11/22 06:44:49;;;;;;;8.00;7.22;;;2.60;99.90;;;;;;4998598;28;20199;-71
2021/11/22 06:47:16;;;;;;;9.77;8.75;;;2.60;99.90;;;;;;5007546;28;20204;-69
2021/11/22 06:49:43;;;;;;;6.80;6.20;;;2.60;99.90;;;;;;4996856;28;20211;-69
2021/11/22 06:52:10;;;;;;;11.98;7.80;;;2.60;99.90;;;;;;4992402;28;20580;-69
2021/11/22 06:54:36;;;;;;;6.60;6.00;;;2.60;99.90;;;;;;4997968;28;20218;-69
2021/11/22 06:57:04;;;;;;;6.32;5.60;;;2.50;99.90;;;;;;4992722;28;20215;-70
2021/11/22 06:59:34;;;;;;;6.75;5.75;;;2.50;99.90;;;;;;4997834;28;20229;-70
2021/11/22 07:02:00;;;;;;;7.03;6.00;;;2.50;99.90;;;;;;5009283;28;20253;-70
2021/11/22 07:04:27;;;;;;;6.95;5.75;;;2.50;99.90;;;;;;4993951;28;20755;-70
2021/11/22 07:06:54;;;;;;;7.63;5.82;;;2.50;99.90;;;;;;4992857;28;20204;-70
2021/11/22 07:09:21;;;;;;;11.25;8.00;;;2.50;99.90;;;;;;5004080;28;20204;-71
2021/11/22 07:11:48;;;;;;;7.28;6.55;;;2.50;99.90;;;;;;5002392;28;20681;-70
2021/11/22 07:14:15;;;;;;;7.82;6.90;;;2.50;99.90;;;;;;5010307;28;20206;-70
2021/11/22 07:16:43;;;;;;;6.80;6.30;;;2.50;99.90;;;;;;5009229;28;20207;-70
2021/11/22 07:19:09;;;;;;;7.35;6.65;;;2.50;99.90;;;;;;4998323;28;20226;-70
2021/11/22 07:21:36;;;;;;;7.18;6.53;;;2.50;99.90;;;;;;5002435;28;20219;-70
2021/11/22 07:24:03;;;;;;;5.80;5.50;;;2.50;99.90;;;;;;5011163;28;20558;-70
2021/11/22 07:26:30;;;;;;;5.82;5.03;;;2.50;99.90;;;;;;4995258;28;20206;-70
2021/11/22 07:28:56;;;;;;;5.28;4.25;;;2.50;99.90;;;;;;5004124;28;20210;-71
2021/11/22 07:31:23;;;;;;;6.63;4.88;;;2.50;99.90;;;;;;5010588;28;20656;-71
2021/11/22 07:33:52;;;;;;;6.13;4.13;;;2.50;99.90;;;;;;5005690;28;20204;-70
2021/11/22 07:36:18;;;;;;;4.95;4.50;;;2.50;99.90;;;;;;5002084;28;20214;-69
2021/11/22 07:38:45;;;;;;;5.63;4.53;;;2.50;99.90;;;;;;5010865;28;20219;-72
2021/11/22 07:41:12;;;;;;;5.45;5.13;;;2.50;99.90;;;;;;5007010;28;20250;-70
2021/11/22 07:43:38;;;;;;;5.30;4.60;;;2.60;99.90;;;;;;5002175;28;20207;-71
2021/11/22 07:46:06;;;;;;;6.07;4.40;;;2.60;99.90;;;;;;5005027;28;20206;-71
2021/11/22 07:48:33;;;;;;;4.57;4.10;;;2.60;99.90;;;;;;5000265;28;20226;-72
2021/11/22 07:51:02;;;;;;;6.00;5.45;;;2.60;99.90;;;;;;4995878;28;20223;-72
2021/11/22 07:53:29;;;;;;;6.47;4.70;;;2.60;99.90;;;;;;5008851;28;20621;-72
2021/11/22 07:55:56;;;;;;;5.55;5.10;;;2.60;99.90;;;;;;4995380;28;20204;-71
2021/11/22 07:58:23;;;;;;;6.25;5.45;;;2.60;99.90;;;;;;4991504;28;20223;-71
2021/11/22 08:00:50;;;;;;;5.55;4.93;;;2.60;99.90;;;;;;4993929;28;20715;-71
2021/11/22 08:03:17;;;;;;;5.30;4.90;;;2.70;99.90;;;;;;5001911;28;20214;-71
2021/11/22 08:05:45;;;;;;;5.68;5.18;;;2.70;99.90;;;;;;5003851;28;20210;-71
2021/11/22 08:08:13;;;;;;;6.00;5.38;;;2.70;99.90;;;;;;5009112;28;20659;-71
2021/11/22 08:10:40;;;;;;;6.47;5.75;;;2.80;99.90;;;;;;5006814;28;20219;-71
2021/11/22 08:13:09;;;;;;;6.38;5.78;;;2.80;99.90;;;;;;4999459;28;20227;-71
2021/11/22 08:15:38;;;;;;;5.53;5.10;;;2.80;99.90;;;;;;5005761;28;20291;-71
2021/11/22 08:18:07;;;;;;;6.65;6.10;;;2.80;99.90;;;;;;5004826;28;20652;-71
2021/11/22 08:20:36;;;;;;;6.50;5.90;;;2.90;99.90;;;;;;5004541;28;20251;-71
2021/11/22 08:23:02;;;;;;;6.32;5.70;;;2.90;99.90;;;;;;5012371;28;20222;-72
2021/11/22 08:25:34;;;;;;;10.55;5.93;;;3.00;99.90;;;;;;4994363;28;20214;-71
2021/11/22 08:28:00;;;;;;;6.10;5.60;;;3.00;99.90;;;;;;5004141;28;20203;-71
2021/11/22 08:30:29;;;;;;;6.32;5.72;;;3.00;99.90;;;;;;5000238;28;20309;-71
2021/11/22 08:32:57;;;;;;;6.93;6.22;;;3.00;99.90;;;;;;5006887;28;20214;-71
2021/11/22 08:35:24;;;;;;;6.97;5.85;;;3.10;99.90;;;;;;4997207;28;20215;-71
2021/11/22 08:37:52;;;;;;;7.00;5.80;;;3.10;99.90;;;;;;5005132;28;20199;-71
2021/11/22 08:40:21;;;;;;;7.60;6.70;;;3.10;99.90;;;;;;5012773;28;20229;-71
2021/11/22 08:42:51;;;;;;;13.60;7.28;;;3.20;99.90;;;;;;5002082;28;20719;-71
2021/11/22 08:45:18;;;;;;;7.80;7.00;;;3.20;99.90;;;;;;4997304;28;20211;-71
2021/11/22 08:47:46;;;;;;;9.48;8.20;;;3.30;99.90;;;;;;4998208;28;20200;-71
2021/11/22 08:50:14;;;;;;;9.75;8.15;;;3.30;99.90;;;;;;5004297;28;20196;-71
2021/11/22 08:52:41;;;;;;;8.98;7.10;;;3.40;99.90;;;;;;5000571;28;20239;-71
2021/11/22 08:55:08;;;;;;;7.10;6.50;;;3.40;99.90;;;;;;5007391;28;20211;-71
2021/11/22 08:57:36;;;;;;;10.77;7.05;;;3.40;99.90;;;;;;5007146;28;20207;-72
2021/11/22 09:00:07;;;;;;;7.60;6.80;;;3.50;99.90;;;;;;5012526;28;20231;-71
2021/11/22 09:02:34;;;;;;;8.10;6.65;;;3.50;99.90;;;;;;5004877;28;20318;-71
2021/11/22 09:05:01;;;;;;;11.68;6.65;;;3.60;99.90;;;;;;5000732;28;20207;-71
2021/11/22 09:07:27;;;;;;;7.00;6.30;;;3.60;99.90;;;;;;5005212;28;20930;-72
2021/11/22 09:09:54;;;;;;;8.45;6.63;;;3.70;99.90;;;;;;4995316;28;20302;-72
2021/11/22 09:12:21;;;;;;;8.93;7.45;;;3.70;99.90;;;;;;5002330;28;20234;-71
2021/11/22 09:14:48;;;;;;;8.55;7.20;;;3.70;99.90;;;;;;5011352;28;20202;-72
2021/11/22 09:17:17;;;;;;;11.32;7.20;;;3.80;99.90;;;;;;4996524;28;20293;-71
2021/11/22 09:19:44;;;;;;;6.72;6.13;;;3.80;99.90;;;;;;4997354;28;20220;-69
2021/11/22 09:22:12;;;;;;;6.05;5.60;;;3.90;99.90;;;;;;5006232;28;20234;-71
2021/11/22 09:24:39;;;;;;;6.10;5.70;;;3.90;99.90;;;;;;5002293;28;20212;-71
2021/11/22 09:27:06;;;;;;;5.47;4.97;;;4.00;99.90;;;;;;5002617;28;20216;-71
2021/11/22 09:29:33;;;;;;;6.18;5.68;;;4.10;99.90;;;;;;5000031;28;20207;-70
2021/11/22 09:32:00;;;;;;;6.90;5.47;;;4.10;99.90;;;;;;4996685;28;20219;-71
2021/11/22 09:34:28;;;;;;;6.28;5.50;;;4.10;99.90;;;;;;5007705;28;20227;-71
2021/11/22 09:36:55;;;;;;;6.32;5.60;;;4.20;99.90;;;;;;5002223;28;20283;-70
2021/11/22 09:39:23;;;;;;;7.28;5.30;;;4.20;99.90;;;;;;5006681;28;20231;-70
2021/11/22 09:41:51;;;;;;;5.22;4.82;;;4.30;99.90;;;;;;5004149;28;20223;-70
2021/11/22 09:44:20;;;;;;;6.90;6.30;;;4.30;99.90;;;;;;5004677;28;20207;-71
2021/11/22 09:46:47;;;;;;;5.00;4.60;;;4.40;99.90;;;;;;5011074;28;20635;-71
2021/11/22 09:49:14;;;;;;;5.47;5.07;;;4.40;99.90;;;;;;5006448;28;20191;-71
2021/11/22 09:51:42;;;;;;;6.20;5.70;;;4.40;99.90;;;;;;4993262;28;20220;-71
2021/11/22 09:54:09;;;;;;;6.05;5.55;;;4.50;99.90;;;;;;4993714;28;20230;-71
2021/11/22 09:56:37;;;;;;;5.95;5.35;;;4.50;99.90;;;;;;5005173;28;20208;-72
2021/11/22 09:59:04;;;;;;;5.38;5.07;;;4.50;99.90;;;;;;5007863;28;20227;-72
2021/11/22 10:01:34;;;;;;;7.35;5.47;;;4.60;99.90;;;;;;5003356;28;20231;-71
2021/11/22 10:04:04;;;;;;;7.03;6.28;;;4.60;99.90;;;;;;5011775;28;20207;-72
2021/11/22 10:06:47;;;;;;;4.70;4.35;;;4.70;99.90;;;;;;5004185;28;20199;-72
2021/11/22 10:09:36;;;;;;;9.05;5.50;;;4.70;99.90;;;;;;5003142;28;20566;-71
2021/11/22 10:12:06;;;;;;;5.85;4.80;;;4.80;99.90;;;;;;4990838;28;20251;-71
2021/11/22 10:14:36;;;;;;;6.43;5.30;;;4.80;99.90;;;;;;4993398;28;20204;-71
2021/11/22 10:17:18;;;;;;;5.28;4.97;;;4.90;99.90;;;;;;5004048;28;20203;-71
2021/11/22 10:19:44;;;;;;;4.85;4.50;;;5.00;99.90;;;;;;5013565;28;20223;-71
2021/11/22 10:22:18;;;;;;;7.50;4.85;;;5.00;99.90;;;;;;5012378;28;20223;-70
2021/11/22 10:24:46;;;;;;;4.75;4.20;;;5.10;99.90;;;;;;5004341;28;20257;-72
2021/11/22 10:27:12;;;;;;;5.18;4.78;;;5.20;99.90;;;;;;5006605;28;20664;-71
2021/11/22 10:29:39;;;;;;;6.00;5.38;;;5.40;99.90;;;;;;4999786;28;20204;-72
2021/11/22 10:32:06;;;;;;;5.70;5.30;;;5.50;99.90;;;;;;5004117;28;20226;-72
2021/11/22 10:34:35;;;;;;;4.15;3.95;;;5.60;99.90;;;;;;5007463;28;20207;-72
2021/11/22 10:37:05;;;;;;;3.75;3.55;;;5.70;99.90;;;;;;5011900;28;20203;-71
2021/11/22 10:39:35;;;;;;;4.43;4.03;;;5.80;99.90;;;;;;4996140;28;20216;-71
2021/11/22 10:42:01;;;;;;;5.18;4.60;;;5.80;99.90;;;;;;5009735;28;20223;-71
2021/11/22 10:44:30;;;;;;;3.65;3.42;;;5.80;99.90;;;;;;5011605;28;20203;-71
2021/11/22 10:47:08;;;;;;;4.28;3.92;;;5.80;99.90;;;;;;4993543;28;20203;-72
2021/11/22 10:49:40;;;;;;;3.67;3.47;;;5.80;99.90;;;;;;5012917;28;20630;-72
2021/11/22 10:52:12;;;;;;;3.72;3.60;;;5.80;99.90;;;;;;4993521;28;20224;-71
2021/11/22 10:54:53;;;;;;;4.85;4.32;;;5.80;99.90;;;;;;5011745;28;20672;-72
2021/11/22 10:57:20;;;;;;;3.70;3.50;;;5.80;99.90;;;;;;4992771;28;20224;-71
2021/11/22 10:59:47;;;;;;;3.65;3.42;;;5.80;99.90;;;;;;5003673;28;20223;-67
2021/11/22 11:02:14;;;;;;;3.83;3.53;;;5.80;99.90;;;;;;5010054;28;20246;-70
2021/11/22 11:04:44;;;;;;;4.50;3.95;;;5.90;99.90;;;;;;5008790;28;20207;-71
2021/11/22 11:07:11;;;;;;;3.78;3.15;;;5.90;99.90;;;;;;5004856;28;20672;-70
2021/11/22 11:09:42;;;;;;;3.58;3.38;;;5.90;99.90;;;;;;5010131;28;20204;-70
2021/11/22 11:12:11;;;;;;;3.58;3.38;;;6.00;99.90;;;;;;5005488;28;20638;-71
2021/11/22 11:14:41;;;;;;;3.03;2.92;;;6.00;99.90;;;;;;5007327;28;20226;-71
2021/11/22 11:17:17;;;;;;;3.33;3.15;;;6.00;99.90;;;;;;5002544;28;20266;-70
2021/11/22 11:19:44;;;;;;;2.42;2.38;;;6.10;99.90;;;;;;5002401;28;20226;-70
2021/11/22 11:22:11;;;;;;;4.15;2.53;;;6.20;99.90;;;;;;5010508;28;20273;-70
2021/11/22 11:24:38;;;;;;;3.15;2.70;;;6.20;99.90;;;;;;5012669;28;20207;-70
2021/11/22 11:27:07;;;;;;;3.65;2.63;;;6.20;99.90;;;;;;4994493;28;20208;-71
2021/11/22 11:29:36;;;;;;;3.70;2.60;;;6.20;99.90;;;;;;4998396;28;20576;-70
2021/11/22 11:32:03;;;;;;;2.92;2.72;;;6.30;99.90;;;;;;4996050;28;20235;-69
2021/11/22 11:34:32;;;;;;;2.25;2.10;;;6.30;99.90;;;;;;4992299;28;20207;-69
2021/11/22 11:37:20;;;;;;;6.03;2.60;;;6.30;99.90;;;;;;4992280;28;20408;-69
2021/11/22 11:40:12;;;;;;;2.38;2.10;;;6.40;99.90;;;;;;4991533;28;20668;-70
2021/11/22 11:43:04;;;;;;;2.90;2.70;;;6.40;99.90;;;;;;4994525;28;20242;-69
2021/11/22 11:45:36;;;;;;;6.30;1.55;;;6.40;99.90;;;;;;4987465;28;20210;-70
2021/11/22 11:48:16;;;;;;;1.33;1.20;;;6.50;99.90;;;;;;5010952;28;20211;-69
2021/11/22 11:50:44;;;;;;;2.08;1.80;;;6.50;99.90;;;;;;5010441;28;20229;-70
2021/11/22 11:53:13;;;;;;;1.45;1.35;;;6.60;99.90;;;;;;5001951;28;20211;-71
2021/11/22 11:55:41;;;;;;;1.88;1.85;;;6.60;99.90;;;;;;5003468;28;20203;-70
2021/11/22 11:58:19;;;;;;;1.70;1.70;;;6.60;99.90;;;;;;5010638;28;20211;-70
2021/11/22 12:00:56;;;;;;;1.48;1.48;;;6.60;99.90;;;;;;5009772;28;20275;-71
2021/11/22 12:03:24;;;;;;;2.05;1.85;;;6.70;99.90;;;;;;5003962;28;20203;-71
2021/11/22 12:05:53;;;;;;;1.90;1.90;;;6.70;99.90;;;;;;5013662;28;20214;-69
2021/11/22 12:08:22;;;;;;;4.30;1.85;;;6.70;99.90;;;;;;5014127;28;20223;-69
2021/11/22 12:10:49;;;;;;;2.47;1.35;;;6.70;99.90;;;;;;5014358;28;20230;-70
2021/11/22 12:13:17;;;;;;;1.27;1.27;;;6.80;99.90;;;;;;5014667;28;20218;-72
2021/11/22 12:15:46;;;;;;;1.35;1.25;;;6.80;99.90;;;;;;5013446;28;20207;-72
2021/11/22 12:18:13;;;;;;;1.30;1.20;;;6.80;99.90;;;;;;5013983;28;20211;-72
2021/11/22 12:20:49;;;;;;;1.77;1.67;;;6.80;99.90;;;;;;5002447;28;20310;-72
2021/11/22 12:23:18;;;;;;;2.83;2.15;;;6.80;99.90;;;;;;4994713;28;20212;-73
2021/11/22 12:25:51;;;;;;;1.35;1.35;;;6.90;99.90;;;;;;4994301;28;20215;-71
2021/11/22 12:28:58;;;;;;;1.35;1.25;;;6.90;99.90;;;;;;4994539;28;20208;-71
2021/11/22 12:31:42;;;;;;;1.80;1.70;;;6.90;99.90;;;;;;4994616;28;20227;-72
2021/11/22 12:34:11;;;;;;;1.80;1.80;;;6.90;99.90;;;;;;5009334;28;20286;-72
2021/11/22 12:36:44;;;;;;;6.93;2.78;;;6.90;99.90;;;;;;5013548;28;20293;-71
2021/11/22 12:39:15;;;;;;;2.03;1.40;;;6.90;99.90;;;;;;5013488;28;20218;-71
2021/11/22 12:41:42;;;;;;;1.77;1.70;;;6.90;99.90;;;;;;5013653;28;20234;-71
2021/11/22 12:44:11;;;;;;;2.63;1.67;;;7.00;99.90;;;;;;5012725;28;20196;-71
2021/11/22 12:46:43;;;;;;;1.88;1.88;;;7.00;99.90;;;;;;5013465;28;20242;-73
2021/11/22 12:49:37;;;;;;;1.67;1.60;;;7.00;99.90;;;;;;5013632;28;20211;-71
2021/11/22 12:52:20;;;;;;;1.98;1.75;;;7.00;99.90;;;;;;5013638;28;20293;-72
2021/11/22 12:54:55;;;;;;;1.38;1.30;;;7.00;99.90;;;;;;5013744;28;20269;-72
2021/11/22 12:57:25;;;;;;;2.00;1.90;;;6.90;99.90;;;;;;5012869;28;20291;-71
2021/11/22 13:00:13;;;;;;;2.42;2.28;;;6.90;99.90;;;;;;4993105;28;20223;-70
2021/11/22 13:02:44;;;;;;;2.10;1.52;;;6.90;99.90;;;;;;4993772;28;20235;-70
2021/11/22 13:05:10;;;;;;;2.55;1.35;;;6.90;99.90;;;;;;4994346;28;20279;-70
2021/11/22 13:07:48;;;;;;;2.08;1.85;;;6.90;99.90;;;;;;5013114;28;20211;-71
2021/11/22 13:10:36;;;;;;;1.13;1.13;;;6.90;99.90;;;;;;5012973;28;20203;-72
2021/11/22 13:13:10;;;;;;;1.90;1.80;;;6.90;99.90;;;;;;5010307;28;20291;-70
2021/11/22 13:15:54;;;;;;;2.25;1.60;;;6.90;99.90;;;;;;5011741;28;20210;-70
2021/11/22 13:18:23;;;;;;;1.70;1.60;;;6.90;99.90;;;;;;5012947;28;20313;-71
2021/11/22 13:20:51;;;;;;;2.88;1.55;;;6.90;99.90;;;;;;5012871;28;20270;-70
2021/11/22 13:23:21;;;;;;;1.98;1.70;;;6.90;99.90;;;;;;5013025;28;20211;-70
2021/11/22 13:25:48;;;;;;;2.72;1.55;;;6.90;99.90;;;;;;5002671;28;20203;-70
2021/11/22 13:28:16;;;;;;;1.58;1.58;;;6.90;99.90;;;;;;4993426;28;20681;-70
2021/11/22 13:30:44;;;;;;;1.75;1.75;;;6.80;99.90;;;;;;4992297;28;20747;-71
2021/11/22 13:33:11;;;;;;;3.03;1.65;;;6.80;99.90;;;;;;4993643;28;20207;-70
2021/11/22 13:35:40;;;;;;;2.20;2.10;;;6.80;99.90;;;;;;4993406;28;20598;-70
2021/11/22 13:38:08;;;;;;;3.10;1.92;;;6.80;99.90;;;;;;4993618;28;20211;-70
2021/11/22 13:40:35;;;;;;;2.55;1.50;;;6.80;99.90;;;;;;4992517;28;20809;-70
2021/11/22 13:43:04;;;;;;;1.55;1.00;;;6.80;99.90;;;;;;4999471;28;20234;-70
2021/11/22 13:45:31;;;;;;;1.20;1.20;;;6.80;99.90;;;;;;5011384;28;20203;-70
2021/11/22 13:47:57;;;;;;;1.35;1.35;;;6.70;99.90;;;;;;5012345;28;20203;-70
2021/11/22 13:50:25;;;;;;;2.08;1.45;;;6.70;99.90;;;;;;5012196;28;20249;-70
2021/11/22 13:52:53;;;;;;;1.42;1.33;;;6.70;99.90;;;;;;5011829;28;20227;-71
2021/11/22 13:55:20;;;;;;;3.53;1.05;;;6.70;99.90;;;;;;5011971;28;20222;-70
2021/11/22 13:57:47;;;;;;;0.98;0.95;;;6.60;99.90;;;;;;5012195;28;20207;-70
2021/11/22 14:00:15;;;;;;;1.42;1.33;;;6.60;99.90;;;;;;5011337;28;20219;-70
2021/11/22 14:02:42;;;;;;;1.10;1.10;;;6.60;99.90;;;;;;5012156;28;20704;-70
2021/11/22 14:05:09;;;;;;;1.65;1.58;;;6.60;99.90;;;;;;5012273;28;20282;-70
2021/11/22 14:07:43;;;;;;;1.88;1.77;;;6.50;99.90;;;;;;5010619;28;20214;-70
2021/11/22 14:10:12;;;;;;;2.30;2.20;;;6.50;99.90;;;;;;5006753;28;20205;-70
2021/11/22 14:12:39;;;;;;;2.53;2.42;;;6.50;99.90;;;;;;5006073;28;20337;-70
2021/11/22 14:15:19;;;;;;;2.33;2.00;;;6.40;99.90;;;;;;5011570;28;20203;-70
2021/11/22 14:17:49;;;;;;;2.60;2.38;;;6.40;99.90;;;;;;5012255;28;20210;-70
2021/11/22 14:20:17;;;;;;;3.08;2.83;;;6.30;99.90;;;;;;5011912;28;20281;-70
2021/11/22 14:22:46;;;;;;;2.45;2.30;;;6.30;99.90;;;;;;5012119;28;20583;-70
2021/11/22 14:25:21;;;;;;;3.17;2.42;;;6.30;99.90;;;;;;4999486;28;20211;-71
2021/11/22 14:27:48;;;;;;;2.38;2.28;;;6.30;99.90;;;;;;4992761;28;20218;-70
2021/11/22 14:30:16;;;;;;;2.08;1.98;;;6.30;99.90;;;;;;4991720;28;20204;-70
2021/11/22 14:32:46;;;;;;;3.78;2.30;;;6.30;99.90;;;;;;4996286;28;20223;-71
2021/11/22 14:35:18;;;;;;;3.13;2.30;;;6.30;99.90;;;;;;5011890;28;20214;-70
2021/11/22 14:38:06;;;;;;;2.80;2.60;;;6.30;99.90;;;;;;5011469;28;20242;-71
2021/11/22 14:40:34;;;;;;;2.38;2.38;;;6.20;99.90;;;;;;5010254;28;20219;-70
2021/11/22 14:43:10;;;;;;;2.67;2.58;;;6.20;99.90;;;;;;5011528;28;20214;-70
2021/11/22 14:45:38;;;;;;;3.35;3.15;;;6.10;99.90;;;;;;5010511;28;20207;-72
2021/11/22 14:48:15;;;;;;;2.97;2.88;;;6.10;99.90;;;;;;5011150;28;20237;-71
2021/11/22 14:50:43;;;;;;;2.40;2.40;;;6.10;99.90;;;;;;5010992;28;20224;-69
2021/11/22 14:53:14;;;;;;;2.47;2.38;;;6.10;99.90;;;;;;5011372;28;20218;-70
2021/11/22 14:55:43;;;;;;;3.25;3.00;;;6.10;99.90;;;;;;5010142;28;20214;-70
2021/11/22 14:58:10;;;;;;;2.85;2.75;;;6.00;99.90;;;;;;4991891;28;20231;-70
2021/11/22 15:00:39;;;;;;;2.25;2.05;;;6.00;99.90;;;;;;4990599;28;20228;-70
2021/11/22 15:03:26;;;;;;;4.10;3.80;;;6.00;99.90;;;;;;4992091;28;20222;-71
2021/11/22 15:05:55;;;;;;;3.80;3.15;;;5.90;99.90;;;;;;4991570;28;20211;-71
2021/11/22 15:08:23;;;;;;;5.55;4.93;;;5.90;99.90;;;;;;4991583;28;20215;-72
2021/11/22 15:10:53;;;;;;;2.90;2.75;;;5.90;99.90;;;;;;4992907;28;20228;-71
2021/11/22 15:13:20;;;;;;;4.70;3.00;;;5.90;99.90;;;;;;5010579;28;20218;-71
2021/11/22 15:15:47;;;;;;;3.90;3.58;;;5.90;99.90;;;;;;5008089;28;20660;-70
2021/11/22 15:18:13;;;;;;;2.20;2.10;;;5.80;99.90;;;;;;5011070;28;20203;-70
2021/11/22 15:20:40;;;;;;;4.63;2.92;;;5.80;99.90;;;;;;5010764;28;20612;-71
2021/11/22 15:23:07;;;;;;;3.00;2.80;;;5.70;99.90;;;;;;5011184;28;20203;-71
2021/11/22 15:25:34;;;;;;;2.72;2.58;;;5.70;99.90;;;;;;5002008;28;20212;-71
2021/11/22 15:28:05;;;;;;;3.00;2.80;;;5.60;99.90;;;;;;5005179;28;20209;-70
2021/11/22 15:30:32;;;;;;;2.47;2.47;;;5.60;99.90;;;;;;5010098;28;20207;-71
2021/11/22 15:32:59;;;;;;;2.75;2.65;;;5.50;99.90;;;;;;5009135;28;20215;-70
2021/11/22 15:35:27;;;;;;;2.85;2.67;;;5.40;99.90;;;;;;4994256;28;20211;-70
2021/11/22 15:37:54;;;;;;;2.97;2.88;;;5.40;99.90;;;;;;5008161;28;20294;-71
2021/11/22 15:40:22;;;;;;;3.05;2.78;;;5.40;99.90;;;;;;5004825;28;20222;-71
2021/11/22 15:42:50;;;;;;;3.00;2.90;;;5.40;99.90;;;;;;5005443;28;20547;-72
2021/11/22 15:45:18;;;;;;;14.48;13.38;;;5.40;99.90;;;;;;5013159;28;20289;-73
2021/11/22 15:47:46;;;;;;;8.98;8.48;;;5.30;99.90;;;;;;4994893;28;20213;-71
2021/11/22 15:50:15;;;;;;;4.70;3.63;;;5.30;99.90;;;;;;4995102;28;20569;-73
2021/11/22 15:52:42;;;;;;;4.28;3.85;;;5.20;99.90;;;;;;5005052;28;20223;-73
2021/11/22 15:55:10;;;;;;;5.30;3.22;;;5.20;99.90;;;;;;5014549;28;20586;-74
2021/11/22 15:57:38;;;;;;;3.25;3.00;;;5.20;99.90;;;;;;5003575;28;20198;-73
2021/11/22 16:00:06;;;;;;;6.93;4.00;;;5.20;99.90;;;;;;5003134;28;20629;-74
2021/11/22 16:02:34;;;;;;;5.50;3.25;;;5.10;99.90;;;;;;5005089;28;20231;-73
2021/11/22 16:05:01;;;;;;;4.50;4.20;;;5.10;99.90;;;;;;5013264;28;20210;-74
2021/11/22 16:07:28;;;;;;;6.53;5.10;;;5.00;99.90;;;;;;4999589;28;20211;-73
2021/11/22 16:09:54;;;;;;;9.98;6.35;;;4.90;99.90;;;;;;5012793;28;20206;-73
2021/11/22 16:12:21;;;;;;;7.60;6.38;;;4.90;99.90;;;;;;5014215;28;20571;-74
2021/11/22 16:14:48;;;;;;;7.75;6.10;;;4.80;99.90;;;;;;5004406;28;20227;-73
2021/11/22 16:17:15;;;;;;;7.28;6.75;;;4.80;99.90;;;;;;5002829;28;20210;-73
2021/11/22 16:19:43;;;;;;;6.07;5.57;;;4.80;99.90;;;;;;5002419;28;20207;-72
2021/11/22 16:22:10;;;;;;;5.75;5.35;;;4.70;99.90;;;;;;5004391;28;20235;-73
2021/11/22 16:24:36;;;;;;;6.88;6.20;;;4.70;99.90;;;;;;5003444;28;20201;-72
2021/11/22 16:27:04;;;;;;;6.28;5.88;;;4.60;99.90;;;;;;5000365;28;20207;-71
2021/11/22 16:29:33;;;;;;;6.10;5.60;;;4.60;99.90;;;;;;5012977;28;20579;-72
2021/11/22 16:32:02;;;;;;;7.00;6.30;;;4.50;99.90;;;;;;5002922;28;20536;-73
2021/11/22 16:34:29;;;;;;;6.32;5.70;;;4.50;99.90;;;;;;5010764;28;20199;-72
2021/11/22 16:36:57;;;;;;;5.70;5.15;;;4.50;99.90;;;;;;5024390;28;20199;-72
2021/11/22 16:39:25;;;;;;;7.80;6.85;;;4.40;99.90;;;;;;5008465;28;20207;-74
2021/11/22 16:41:52;;;;;;;6.38;5.10;;;4.40;99.90;;;;;;4997941;28;20731;-74
2021/11/22 16:44:22;;;;;;;5.63;5.20;;;4.40;99.90;;;;;;5001524;28;20211;-73
2021/11/22 16:46:49;;;;;;;4.97;4.70;;;4.40;99.90;;;;;;5009932;28;20286;-74
2021/11/22 16:49:16;;;;;;;4.75;4.30;;;4.30;99.90;;;;;;5012923;28;20214;-73
2021/11/22 16:51:44;;;;;;;15.30;14.25;;;4.30;99.90;;;;;;5000298;28;20228;-73
2021/11/22 16:54:12;;;;;;;8.20;4.55;;;4.40;99.90;;;;;;5001789;28;20306;-73
2021/11/22 16:56:41;;;;;;;5.50;4.22;;;4.30;99.90;;;;;;5001085;28;20280;-73
2021/11/22 16:59:08;;;;;;;5.53;4.05;;;4.30;99.90;;;;;;4994105;28;20299;-72
2021/11/22 17:01:38;;;;;;;4.90;4.18;;;4.30;99.90;;;;;;5003696;28;20250;-73
2021/11/22 17:04:05;;;;;;;4.65;4.35;;;4.20;99.90;;;;;;4996117;28;20227;-73
2021/11/22 17:06:32;;;;;;;4.80;4.50;;;4.20;99.90;;;;;;5003353;28;20210;-73
2021/11/22 17:08:59;;;;;;;4.65;4.25;;;4.20;99.90;;;;;;5003510;28;20199;-73
2021/11/22 17:11:27;;;;;;;6.70;4.25;;;4.20;99.90;;;;;;5012565;28;20289;-71
2021/11/22 17:13:53;;;;;;;8.32;6.10;;;4.10;99.90;;;;;;5006418;28;20214;-71
2021/11/22 17:16:21;;;;;;;5.93;5.38;;;4.10;99.90;;;;;;5012619;28;20302;-71
2021/11/22 17:18:49;;;;;;;8.80;7.28;;;4.10;99.90;;;;;;4998328;28;20199;-71
2021/11/22 17:21:17;;;;;;;9.15;8.30;;;4.00;99.90;;;;;;5011433;28;20231;-71
2021/11/22 17:23:44;;;;;;;6.75;6.10;;;4.00;99.90;;;;;;5010897;28;20215;-70
2021/11/22 17:26:11;;;;;;;7.60;5.60;;;4.00;99.90;;;;;;5012731;28;20211;-70
2021/11/22 17:28:40;;;;;;;4.78;4.40;;;4.00;99.90;;;;;;5011044;28;20200;-70
2021/11/22 17:31:12;;;;;;;3.95;3.80;;;4.00;99.90;;;;;;4991625;28;20697;-70
2021/11/22 17:33:39;;;;;;;4.35;4.03;;;3.90;99.90;;;;;;5006743;28;20203;-70
2021/11/22 17:36:06;;;;;;;4.40;3.92;;;3.90;99.90;;;;;;5000966;28;20207;-70
2021/11/22 17:38:32;;;;;;;5.75;3.03;;;3.90;99.90;;;;;;5028634;28;20202;-70
2021/11/22 17:40:59;;;;;;;4.85;3.42;;;4.00;99.90;;;;;;5032147;28;20876;-70
2021/11/22 17:43:26;;;;;;;4.20;3.85;;;3.90;99.90;;;;;;5021760;28;20204;-70
2021/11/22 17:45:55;;;;;;;3.30;3.05;;;3.90;99.90;;;;;;5005753;28;20696;-71
2021/11/22 17:48:22;;;;;;;5.45;3.40;;;4.00;99.90;;;;;;5003028;28;20204;-70
2021/11/22 17:50:48;;;;;;;2.90;2.80;;;3.90;99.90;;;;;;5014139;28;20219;-70
2021/11/22 17:53:15;;;;;;;3.65;3.13;;;3.90;99.90;;;;;;5008085;28;20298;-70
2021/11/22 17:55:44;;;;;;;3.40;3.20;;;3.90;99.90;;;;;;5017857;28;20293;-70
2021/11/22 17:58:11;;;;;;;4.18;3.60;;;3.90;99.90;;;;;;5000276;28;20636;-70
2021/11/22 18:00:37;;;;;;;3.70;3.60;;;3.90;99.90;;;;;;4996719;28;20731;-70
2021/11/22 18:03:05;;;;;;;3.15;2.95;;;3.80;99.90;;;;;;5011987;28;20234;-70
2021/11/22 18:05:32;;;;;;;4.40;3.60;;;3.90;99.90;;;;;;5032082;28;20210;-70
2021/11/22 18:07:59;;;;;;;3.60;3.30;;;3.90;99.90;;;;;;5009612;28;20636;-72